Terminal Aerodrome Forecast
Issued by NWS

Home | Current Version | Previous Version | Text Only | Print | Product List | Glossary On
Versions: 1 2 3 4 5 6 7 8 9 10 11 12 13 14
000
FTUS46 KSTO 152300
TAFSCK
TAF
KSCK 152339Z 1600/1624 30010KT P6SM FEW200
     FM161700 33010G16KT P6SM SCT200
     FM162200 32010KT P6SM SKC=

USA.gov is the U.S. government's official web portal to all federal, state and local government web resources and services.